sensor_id;sensor_type;location;lat;lon;timestamp;temperature;humidity
981;DHT22;479;53.514;9.994;2023-12-29T00:01:29;10.40;99.90
981;DHT22;479;53.514;9.994;2023-12-29T00:03:56;10.30;99.90
981;DHT22;479;53.514;9.994;2023-12-29T00:06:23;10.10;99.90
981;DHT22;479;53.514;9.994;2023-12-29T00:08:51;10.00;99.90
981;DHT22;479;53.514;9.994;2023-12-29T00:11:19;9.80;99.90
981;DHT22;479;53.514;9.994;2023-12-29T00:13:48;9.70;99.90
981;DHT22;479;53.514;9.994;2023-12-29T00:16:15;9.60;99.90
981;DHT22;479;53.514;9.994;2023-12-29T00:18:42;9.60;99.90
981;DHT22;479;53.514;9.994;2023-12-29T00:21:08;9.50;99.90
981;DHT22;479;53.514;9.994;2023-12-29T00:23:35;9.50;99.90
981;DHT22;479;53.514;9.994;2023-12-29T00:26:02;9.40;99.90
981;DHT22;479;53.514;9.994;2023-12-29T00:28:29;9.40;99.90
981;DHT22;479;53.514;9.994;2023-12-29T00:30:57;9.40;99.90
981;DHT22;479;53.514;9.994;2023-12-29T00:33:24;9.50;99.90
981;DHT22;479;53.514;9.994;2023-12-29T00:35:52;9.50;99.90
981;DHT22;479;53.514;9.994;2023-12-29T00:38:19;9.60;99.90
981;DHT22;479;53.514;9.994;2023-12-29T00:40:46;9.60;99.90
981;DHT22;479;53.514;9.994;2023-12-29T00:43:12;9.70;99.90
981;DHT22;479;53.514;9.994;2023-12-29T00:45:39;9.70;99.90
981;DHT22;479;53.514;9.994;2023-12-29T00:48:08;9.80;99.90
981;DHT22;479;53.514;9.994;2023-12-29T00:50:35;9.80;99.90
981;DHT22;479;53.514;9.994;2023-12-29T00:53:01;9.90;99.90
981;DHT22;479;53.514;9.994;2023-12-29T00:55:28;9.90;99.90
981;DHT22;479;53.514;9.994;2023-12-29T00:57:56;10.00;99.90
981;DHT22;479;53.514;9.994;2023-12-29T01:00:23;10.00;99.90
981;DHT22;479;53.514;9.994;2023-12-29T01:02:51;10.00;99.90
981;DHT22;479;53.514;9.994;2023-12-29T01:05:20;10.00;99.90
981;DHT22;479;53.514;9.994;2023-12-29T01:07:47;10.10;99.90
981;DHT22;479;53.514;9.994;2023-12-29T01:10:14;10.20;99.90
981;DHT22;479;53.514;9.994;2023-12-29T01:12:41;10.10;99.90
981;DHT22;479;53.514;9.994;2023-12-29T01:15:08;10.10;99.90
981;DHT22;479;53.514;9.994;2023-12-29T01:17:35;10.10;99.90
981;DHT22;479;53.514;9.994;2023-12-29T01:20:03;10.10;99.90
981;DHT22;479;53.514;9.994;2023-12-29T01:22:31;10.10;99.90
981;DHT22;479;53.514;9.994;2023-12-29T01:24:59;10.00;99.90
981;DHT22;479;53.514;9.994;2023-12-29T01:27:26;10.00;99.90
981;DHT22;479;53.514;9.994;2023-12-29T01:29:53;10.00;99.90
981;DHT22;479;53.514;9.994;2023-12-29T01:32:21;10.00;99.90
981;DHT22;479;53.514;9.994;2023-12-29T01:34:48;10.00;99.90
981;DHT22;479;53.514;9.994;2023-12-29T01:37:15;10.00;99.90
981;DHT22;479;53.514;9.994;2023-12-29T01:39:43;9.90;99.90
981;DHT22;479;53.514;9.994;2023-12-29T01:42:10;10.00;99.90
981;DHT22;479;53.514;9.994;2023-12-29T01:44:37;10.00;99.90
981;DHT22;479;53.514;9.994;2023-12-29T01:47:11;10.10;99.90
981;DHT22;479;53.514;9.994;2023-12-29T01:49:40;10.10;99.90
981;DHT22;479;53.514;9.994;2023-12-29T01:52:07;10.10;99.90
981;DHT22;479;53.514;9.994;2023-12-29T01:54:35;10.10;99.90
981;DHT22;479;53.514;9.994;2023-12-29T01:57:05;10.10;99.90
981;DHT22;479;53.514;9.994;2023-12-29T01:59:35;10.10;99.90
981;DHT22;479;53.514;9.994;2023-12-29T02:02:03;10.10;99.90
981;DHT22;479;53.514;9.994;2023-12-29T02:04:31;10.10;99.90
981;DHT22;479;53.514;9.994;2023-12-29T02:06:58;10.20;99.90
981;DHT22;479;53.514;9.994;2023-12-29T02:09:25;10.10;99.90
981;DHT22;479;53.514;9.994;2023-12-29T02:11:54;10.10;99.90
981;DHT22;479;53.514;9.994;2023-12-29T02:14:22;10.10;99.90
981;DHT22;479;53.514;9.994;2023-12-29T02:16:55;10.00;99.90
981;DHT22;479;53.514;9.994;2023-12-29T02:19:37;10.00;99.90
981;DHT22;479;53.514;9.994;2023-12-29T02:22:06;10.00;99.90
981;DHT22;479;53.514;9.994;2023-12-29T02:24:34;10.00;99.90
981;DHT22;479;53.514;9.994;2023-12-29T02:27:11;10.00;99.90
981;DHT22;479;53.514;9.994;2023-12-29T02:29:43;10.00;99.90
981;DHT22;479;53.514;9.994;2023-12-29T02:32:15;10.00;99.90
981;DHT22;479;53.514;9.994;2023-12-29T02:34:44;10.00;99.90
981;DHT22;479;53.514;9.994;2023-12-29T02:37:14;10.00;99.90
981;DHT22;479;53.514;9.994;2023-12-29T02:39:41;9.90;99.90
981;DHT22;479;53.514;9.994;2023-12-29T02:42:10;10.00;99.90
981;DHT22;479;53.514;9.994;2023-12-29T02:44:37;10.10;99.90
981;DHT22;479;53.514;9.994;2023-12-29T02:47:04;10.10;99.90
981;DHT22;479;53.514;9.994;2023-12-29T02:49:32;10.10;99.90
981;DHT22;479;53.514;9.994;2023-12-29T02:51:59;10.10;99.90
981;DHT22;479;53.514;9.994;2023-12-29T02:54:26;10.10;99.90
981;DHT22;479;53.514;9.994;2023-12-29T02:56:53;10.10;99.90
981;DHT22;479;53.514;9.994;2023-12-29T02:59:21;10.10;99.90
981;DHT22;479;53.514;9.994;2023-12-29T03:01:48;10.10;99.90
981;DHT22;479;53.514;9.994;2023-12-29T03:04:16;10.10;99.90
981;DHT22;479;53.514;9.994;2023-12-29T03:06:43;10.20;99.90
981;DHT22;479;53.514;9.994;2023-12-29T03:09:12;10.10;99.90
981;DHT22;479;53.514;9.994;2023-12-29T03:11:39;10.10;99.90
981;DHT22;479;53.514;9.994;2023-12-29T03:14:05;10.10;99.90
981;DHT22;479;53.514;9.994;2023-12-29T03:16:34;10.00;99.90
981;DHT22;479;53.514;9.994;2023-12-29T03:19:01;10.00;99.90
981;DHT22;479;53.514;9.994;2023-12-29T03:21:28;10.00;99.90
981;DHT22;479;53.514;9.994;2023-12-29T03:23:57;10.00;99.90
981;DHT22;479;53.514;9.994;2023-12-29T03:26:24;9.90;99.90
981;DHT22;479;53.514;9.994;2023-12-29T03:28:51;9.90;99.90
981;DHT22;479;53.514;9.994;2023-12-29T03:31:18;9.80;99.90
981;DHT22;479;53.514;9.994;2023-12-29T03:33:46;9.80;99.90
981;DHT22;479;53.514;9.994;2023-12-29T03:36:14;9.70;99.90
981;DHT22;479;53.514;9.994;2023-12-29T03:38:43;9.60;99.90
981;DHT22;479;53.514;9.994;2023-12-29T03:41:10;9.60;99.90
981;DHT22;479;53.514;9.994;2023-12-29T03:43:36;9.60;99.90
981;DHT22;479;53.514;9.994;2023-12-29T03:46:04;9.60;99.90
981;DHT22;479;53.514;9.994;2023-12-29T03:48:41;9.50;99.90
981;DHT22;479;53.514;9.994;2023-12-29T03:51:09;9.50;99.90
981;DHT22;479;53.514;9.994;2023-12-29T03:53:36;9.50;99.90
981;DHT22;479;53.514;9.994;2023-12-29T03:56:04;9.50;99.90
981;DHT22;479;53.514;9.994;2023-12-29T03:58:31;9.50;99.90
981;DHT22;479;53.514;9.994;2023-12-29T04:00:58;9.50;99.90
981;DHT22;479;53.514;9.994;2023-12-29T04:03:25;9.60;99.90
981;DHT22;479;53.514;9.994;2023-12-29T04:05:51;9.60;99.90
981;DHT22;479;53.514;9.994;2023-12-29T04:08:20;9.50;99.90
981;DHT22;479;53.514;9.994;2023-12-29T04:10:47;9.30;99.90
981;DHT22;479;53.514;9.994;2023-12-29T04:13:14;9.10;99.90
981;DHT22;479;53.514;9.994;2023-12-29T04:15:41;8.90;99.90
981;DHT22;479;53.514;9.994;2023-12-29T04:18:08;8.80;99.90
981;DHT22;479;53.514;9.994;2023-12-29T04:20:35;8.70;99.90
981;DHT22;479;53.514;9.994;2023-12-29T04:23:03;8.50;99.90
981;DHT22;479;53.514;9.994;2023-12-29T04:25:32;8.20;99.90
981;DHT22;479;53.514;9.994;2023-12-29T04:27:59;8.10;99.90
981;DHT22;479;53.514;9.994;2023-12-29T04:30:26;7.90;99.90
981;DHT22;479;53.514;9.994;2023-12-29T04:32:55;7.60;99.90
981;DHT22;479;53.514;9.994;2023-12-29T04:35:22;7.40;99.90
981;DHT22;479;53.514;9.994;2023-12-29T04:37:49;7.30;99.90
981;DHT22;479;53.514;9.994;2023-12-29T04:40:17;7.20;99.90
981;DHT22;479;53.514;9.994;2023-12-29T04:42:45;7.20;99.90
981;DHT22;479;53.514;9.994;2023-12-29T04:45:12;7.20;99.90
981;DHT22;479;53.514;9.994;2023-12-29T04:47:39;7.20;99.90
981;DHT22;479;53.514;9.994;2023-12-29T04:50:07;7.20;99.90
981;DHT22;479;53.514;9.994;2023-12-29T04:52:34;7.20;99.90
981;DHT22;479;53.514;9.994;2023-12-29T04:55:01;7.10;99.90
981;DHT22;479;53.514;9.994;2023-12-29T04:57:28;7.10;99.90
981;DHT22;479;53.514;9.994;2023-12-29T04:59:56;7.00;99.90
981;DHT22;479;53.514;9.994;2023-12-29T05:02:23;7.00;99.90
981;DHT22;479;53.514;9.994;2023-12-29T05:04:54;7.00;99.90
981;DHT22;479;53.514;9.994;2023-12-29T05:07:23;7.00;99.90
981;DHT22;479;53.514;9.994;2023-12-29T05:09:52;7.00;99.90
981;DHT22;479;53.514;9.994;2023-12-29T05:12:19;7.10;99.90
981;DHT22;479;53.514;9.994;2023-12-29T05:14:47;7.10;99.90
981;DHT22;479;53.514;9.994;2023-12-29T05:17:15;7.10;99.90
981;DHT22;479;53.514;9.994;2023-12-29T05:19:42;7.10;99.90
981;DHT22;479;53.514;9.994;2023-12-29T05:22:09;7.10;99.90
981;DHT22;479;53.514;9.994;2023-12-29T05:24:37;7.20;99.90
981;DHT22;479;53.514;9.994;2023-12-29T05:27:06;7.30;99.90
981;DHT22;479;53.514;9.994;2023-12-29T05:29:35;7.20;99.90
981;DHT22;479;53.514;9.994;2023-12-29T05:32:06;7.30;99.90
981;DHT22;479;53.514;9.994;2023-12-29T05:34:36;7.30;99.90
981;DHT22;479;53.514;9.994;2023-12-29T05:37:03;7.40;99.90
981;DHT22;479;53.514;9.994;2023-12-29T05:39:30;7.40;99.90
981;DHT22;479;53.514;9.994;2023-12-29T05:41:57;7.50;99.90
981;DHT22;479;53.514;9.994;2023-12-29T05:44:26;7.50;99.90
981;DHT22;479;53.514;9.994;2023-12-29T05:46:53;7.40;99.90
981;DHT22;479;53.514;9.994;2023-12-29T05:49:24;7.50;99.90
981;DHT22;479;53.514;9.994;2023-12-29T05:51:53;7.60;99.90
981;DHT22;479;53.514;9.994;2023-12-29T05:54:21;7.60;99.90
981;DHT22;479;53.514;9.994;2023-12-29T05:56:48;7.60;99.90
981;DHT22;479;53.514;9.994;2023-12-29T05:59:15;7.60;99.90
981;DHT22;479;53.514;9.994;2023-12-29T06:01:42;7.60;99.90
981;DHT22;479;53.514;9.994;2023-12-29T06:04:09;7.60;99.90
981;DHT22;479;53.514;9.994;2023-12-29T06:06:36;7.60;99.90
981;DHT22;479;53.514;9.994;2023-12-29T06:09:04;7.70;99.90
981;DHT22;479;53.514;9.994;2023-12-29T06:11:31;7.70;99.90
981;DHT22;479;53.514;9.994;2023-12-29T06:13:59;7.90;99.90
981;DHT22;479;53.514;9.994;2023-12-29T06:16:26;8.00;99.90
981;DHT22;479;53.514;9.994;2023-12-29T06:18:55;8.00;99.90
981;DHT22;479;53.514;9.994;2023-12-29T06:21:23;8.00;99.90
981;DHT22;479;53.514;9.994;2023-12-29T06:23:52;8.00;99.90
981;DHT22;479;53.514;9.994;2023-12-29T06:26:26;7.90;99.90
981;DHT22;479;53.514;9.994;2023-12-29T06:28:53;7.90;99.90
981;DHT22;479;53.514;9.994;2023-12-29T06:31:21;7.90;99.90
981;DHT22;479;53.514;9.994;2023-12-29T06:33:51;7.90;99.90
981;DHT22;479;53.514;9.994;2023-12-29T06:36:22;8.00;99.90
981;DHT22;479;53.514;9.994;2023-12-29T06:38:50;8.10;99.90
981;DHT22;479;53.514;9.994;2023-12-29T06:41:19;8.10;99.90
981;DHT22;479;53.514;9.994;2023-12-29T06:44:03;8.20;99.90
981;DHT22;479;53.514;9.994;2023-12-29T06:46:32;8.20;99.90
981;DHT22;479;53.514;9.994;2023-12-29T06:49:01;8.20;99.90
981;DHT22;479;53.514;9.994;2023-12-29T06:51:29;8.20;99.90
981;DHT22;479;53.514;9.994;2023-12-29T06:53:57;8.20;99.90
981;DHT22;479;53.514;9.994;2023-12-29T06:56:27;8.20;99.90
981;DHT22;479;53.514;9.994;2023-12-29T06:58:56;8.30;99.90
981;DHT22;479;53.514;9.994;2023-12-29T07:01:27;8.30;99.90
981;DHT22;479;53.514;9.994;2023-12-29T07:04:01;8.30;99.90
981;DHT22;479;53.514;9.994;2023-12-29T07:06:30;8.30;99.90
981;DHT22;479;53.514;9.994;2023-12-29T07:09:06;8.40;99.90
981;DHT22;479;53.514;9.994;2023-12-29T07:11:36;8.40;99.90
981;DHT22;479;53.514;9.994;2023-12-29T07:14:05;8.40;99.90
981;DHT22;479;53.514;9.994;2023-12-29T07:16:33;8.30;99.90
981;DHT22;479;53.514;9.994;2023-12-29T07:19:04;8.40;99.90
981;DHT22;479;53.514;9.994;2023-12-29T07:21:32;8.40;99.90
981;DHT22;479;53.514;9.994;2023-12-29T07:24:01;8.40;99.90
981;DHT22;479;53.514;9.994;2023-12-29T07:26:34;8.40;99.90
981;DHT22;479;53.514;9.994;2023-12-29T07:29:02;8.50;99.90
981;DHT22;479;53.514;9.994;2023-12-29T07:31:33;8.40;99.90
981;DHT22;479;53.514;9.994;2023-12-29T07:34:01;8.50;99.90
981;DHT22;479;53.514;9.994;2023-12-29T07:36:28;8.50;99.90
981;DHT22;479;53.514;9.994;2023-12-29T07:38:58;8.60;99.90
981;DHT22;479;53.514;9.994;2023-12-29T07:41:26;8.60;99.90
981;DHT22;479;53.514;9.994;2023-12-29T07:43:54;8.60;99.90
981;DHT22;479;53.514;9.994;2023-12-29T07:46:24;8.70;99.90
981;DHT22;479;53.514;9.994;2023-12-29T07:48:53;8.70;99.90
981;DHT22;479;53.514;9.994;2023-12-29T07:51:21;8.70;99.90
981;DHT22;479;53.514;9.994;2023-12-29T07:53:49;8.70;99.90
981;DHT22;479;53.514;9.994;2023-12-29T07:56:16;8.80;99.90
981;DHT22;479;53.514;9.994;2023-12-29T07:58:42;8.80;99.90
981;DHT22;479;53.514;9.994;2023-12-29T08:01:10;8.90;99.90
981;DHT22;479;53.514;9.994;2023-12-29T08:03:37;9.00;99.90
981;DHT22;479;53.514;9.994;2023-12-29T08:06:05;9.00;99.90
981;DHT22;479;53.514;9.994;2023-12-29T08:08:32;9.10;99.90
981;DHT22;479;53.514;9.994;2023-12-29T08:11:02;9.00;99.90
981;DHT22;479;53.514;9.994;2023-12-29T08:13:28;9.00;99.90
981;DHT22;479;53.514;9.994;2023-12-29T08:15:55;9.10;99.90
981;DHT22;479;53.514;9.994;2023-12-29T08:18:23;9.10;99.90
981;DHT22;479;53.514;9.994;2023-12-29T08:20:50;9.10;99.90
981;DHT22;479;53.514;9.994;2023-12-29T08:23:19;9.10;99.90
981;DHT22;479;53.514;9.994;2023-12-29T08:25:46;9.10;99.90
981;DHT22;479;53.514;9.994;2023-12-29T08:28:13;9.00;99.90
981;DHT22;479;53.514;9.994;2023-12-29T08:30:40;9.00;99.90
981;DHT22;479;53.514;9.994;2023-12-29T08:33:11;9.00;99.90
981;DHT22;479;53.514;9.994;2023-12-29T08:35:41;9.10;99.90
981;DHT22;479;53.514;9.994;2023-12-29T08:38:10;9.10;99.90
981;DHT22;479;53.514;9.994;2023-12-29T08:41:04;9.20;99.90
981;DHT22;479;53.514;9.994;2023-12-29T08:43:33;9.30;99.90
981;DHT22;479;53.514;9.994;2023-12-29T08:46:02;9.40;99.90
981;DHT22;479;53.514;9.994;2023-12-29T08:48:29;9.40;99.90
981;DHT22;479;53.514;9.994;2023-12-29T08:50:56;9.50;99.90
981;DHT22;479;53.514;9.994;2023-12-29T08:53:23;9.50;99.90
981;DHT22;479;53.514;9.994;2023-12-29T08:55:51;9.60;99.90
981;DHT22;479;53.514;9.994;2023-12-29T08:58:19;9.60;99.90
981;DHT22;479;53.514;9.994;2023-12-29T09:00:46;9.60;99.90
981;DHT22;479;53.514;9.994;2023-12-29T09:03:13;9.70;99.90
981;DHT22;479;53.514;9.994;2023-12-29T09:05:40;9.80;99.90
981;DHT22;479;53.514;9.994;2023-12-29T09:08:07;9.90;99.90
981;DHT22;479;53.514;9.994;2023-12-29T09:10:34;9.90;99.90
981;DHT22;479;53.514;9.994;2023-12-29T09:13:03;9.90;99.90
981;DHT22;479;53.514;9.994;2023-12-29T09:15:32;9.80;99.90
981;DHT22;479;53.514;9.994;2023-12-29T09:18:00;9.60;99.90
981;DHT22;479;53.514;9.994;2023-12-29T09:20:27;9.50;99.90
981;DHT22;479;53.514;9.994;2023-12-29T09:22:54;9.50;99.90
981;DHT22;479;53.514;9.994;2023-12-29T09:25:21;9.50;99.90
981;DHT22;479;53.514;9.994;2023-12-29T09:27:48;9.40;99.90
981;DHT22;479;53.514;9.994;2023-12-29T09:30:18;9.40;99.90
981;DHT22;479;53.514;9.994;2023-12-29T09:32:46;9.50;99.90
981;DHT22;479;53.514;9.994;2023-12-29T09:35:13;9.30;99.90
981;DHT22;479;53.514;9.994;2023-12-29T09:37:40;9.10;99.90
981;DHT22;479;53.514;9.994;2023-12-29T09:40:10;8.90;99.90
981;DHT22;479;53.514;9.994;2023-12-29T09:42:38;8.70;99.90
981;DHT22;479;53.514;9.994;2023-12-29T09:45:09;8.70;99.90
981;DHT22;479;53.514;9.994;2023-12-29T09:47:38;8.60;99.90
981;DHT22;479;53.514;9.994;2023-12-29T09:50:12;8.50;99.90
981;DHT22;479;53.514;9.994;2023-12-29T09:52:41;8.40;99.90
981;DHT22;479;53.514;9.994;2023-12-29T09:55:09;8.30;99.90
981;DHT22;479;53.514;9.994;2023-12-29T09:57:36;8.30;99.90
981;DHT22;479;53.514;9.994;2023-12-29T10:00:05;8.30;99.90
981;DHT22;479;53.514;9.994;2023-12-29T10:02:36;8.40;99.90
981;DHT22;479;53.514;9.994;2023-12-29T10:05:04;8.50;99.90
981;DHT22;479;53.514;9.994;2023-12-29T10:07:36;8.60;99.90
981;DHT22;479;53.514;9.994;2023-12-29T10:10:04;8.70;99.90
981;DHT22;479;53.514;9.994;2023-12-29T10:12:33;8.80;99.90
981;DHT22;479;53.514;9.994;2023-12-29T10:15:06;8.80;99.90
981;DHT22;479;53.514;9.994;2023-12-29T10:17:52;8.70;99.90
981;DHT22;479;53.514;9.994;2023-12-29T10:20:25;8.80;99.90
981;DHT22;479;53.514;9.994;2023-12-29T10:23:05;9.00;99.90
981;DHT22;479;53.514;9.994;2023-12-29T10:25:34;9.00;99.90
981;DHT22;479;53.514;9.994;2023-12-29T10:28:02;9.00;99.90
981;DHT22;479;53.514;9.994;2023-12-29T10:30:30;9.10;99.90
981;DHT22;479;53.514;9.994;2023-12-29T10:32:57;9.00;99.90
981;DHT22;479;53.514;9.994;2023-12-29T10:35:26;9.00;99.90
981;DHT22;479;53.514;9.994;2023-12-29T10:37:53;9.00;99.90
981;DHT22;479;53.514;9.994;2023-12-29T10:40:21;9.00;99.90
981;DHT22;479;53.514;9.994;2023-12-29T10:42:52;8.80;99.90
981;DHT22;479;53.514;9.994;2023-12-29T10:45:19;8.70;99.90
981;DHT22;479;53.514;9.994;2023-12-29T10:47:46;8.80;99.90
981;DHT22;479;53.514;9.994;2023-12-29T10:50:13;8.80;99.90
981;DHT22;479;53.514;9.994;2023-12-29T10:52:40;8.70;99.90
981;DHT22;479;53.514;9.994;2023-12-29T10:55:10;8.70;99.90
981;DHT22;479;53.514;9.994;2023-12-29T10:57:39;8.90;99.90
981;DHT22;479;53.514;9.994;2023-12-29T11:00:08;8.90;99.90
981;DHT22;479;53.514;9.994;2023-12-29T11:02:38;9.00;99.90
981;DHT22;479;53.514;9.994;2023-12-29T11:05:06;9.00;99.90
981;DHT22;479;53.514;9.994;2023-12-29T11:07:37;9.10;99.90
981;DHT22;479;53.514;9.994;2023-12-29T11:10:06;9.20;99.90
981;DHT22;479;53.514;9.994;2023-12-29T11:12:34;9.10;99.90
981;DHT22;479;53.514;9.994;2023-12-29T11:15:04;9.30;99.90
981;DHT22;479;53.514;9.994;2023-12-29T11:17:33;9.40;99.90
981;DHT22;479;53.514;9.994;2023-12-29T11:20:01;9.60;99.90
981;DHT22;479;53.514;9.994;2023-12-29T11:22:30;9.80;99.90
981;DHT22;479;53.514;9.994;2023-12-29T11:24:58;9.70;99.90
981;DHT22;479;53.514;9.994;2023-12-29T11:27:28;9.60;99.90
981;DHT22;479;53.514;9.994;2023-12-29T11:29:57;9.50;99.90
981;DHT22;479;53.514;9.994;2023-12-29T11:32:32;9.40;99.90
981;DHT22;479;53.514;9.994;2023-12-29T11:35:11;9.40;99.90
981;DHT22;479;53.514;9.994;2023-12-29T11:38:08;9.30;99.90
981;DHT22;479;53.514;9.994;2023-12-29T11:40:41;9.30;99.90
981;DHT22;479;53.514;9.994;2023-12-29T11:43:14;9.30;99.90
981;DHT22;479;53.514;9.994;2023-12-29T11:45:42;9.20;99.90
981;DHT22;479;53.514;9.994;2023-12-29T11:48:11;9.20;99.90
981;DHT22;479;53.514;9.994;2023-12-29T11:50:39;9.20;99.90
981;DHT22;479;53.514;9.994;2023-12-29T11:53:06;9.20;99.90
981;DHT22;479;53.514;9.994;2023-12-29T11:55:35;9.20;99.90
981;DHT22;479;53.514;9.994;2023-12-29T11:58:02;9.10;99.90
981;DHT22;479;53.514;9.994;2023-12-29T12:00:46;9.10;99.90
981;DHT22;479;53.514;9.994;2023-12-29T12:03:16;9.10;99.90
981;DHT22;479;53.514;9.994;2023-12-29T12:05:47;9.10;99.90
981;DHT22;479;53.514;9.994;2023-12-29T12:08:30;9.10;99.90
981;DHT22;479;53.514;9.994;2023-12-29T12:14:03;9.10;99.90
981;DHT22;479;53.514;9.994;2023-12-29T12:16:50;9.20;99.90
981;DHT22;479;53.514;9.994;2023-12-29T12:19:21;9.20;99.90
981;DHT22;479;53.514;9.994;2023-12-29T12:21:53;9.30;99.90
981;DHT22;479;53.514;9.994;2023-12-29T12:24:20;9.40;99.90
981;DHT22;479;53.514;9.994;2023-12-29T12:26:47;9.60;99.90
981;DHT22;479;53.514;9.994;2023-12-29T12:29:15;9.60;99.90
981;DHT22;479;53.514;9.994;2023-12-29T12:31:53;9.60;99.90
981;DHT22;479;53.514;9.994;2023-12-29T12:34:22;9.50;99.90
981;DHT22;479;53.514;9.994;2023-12-29T12:36:49;9.50;99.90
981;DHT22;479;53.514;9.994;2023-12-29T12:39:17;9.50;99.90
981;DHT22;479;53.514;9.994;2023-12-29T12:41:44;9.60;99.90
981;DHT22;479;53.514;9.994;2023-12-29T12:44:12;9.60;99.90
981;DHT22;479;53.514;9.994;2023-12-29T12:46:44;9.60;99.90
981;DHT22;479;53.514;9.994;2023-12-29T12:49:12;9.60;99.90
981;DHT22;479;53.514;9.994;2023-12-29T12:51:40;9.60;99.90
981;DHT22;479;53.514;9.994;2023-12-29T12:54:07;9.60;99.90
981;DHT22;479;53.514;9.994;2023-12-29T12:56:36;9.80;99.90
981;DHT22;479;53.514;9.994;2023-12-29T12:59:03;9.80;99.90
981;DHT22;479;53.514;9.994;2023-12-29T13:01:34;9.80;99.90
981;DHT22;479;53.514;9.994;2023-12-29T13:04:04;9.70;99.90
981;DHT22;479;53.514;9.994;2023-12-29T13:06:31;9.70;99.90
981;DHT22;479;53.514;9.994;2023-12-29T13:09:00;9.70;99.90
981;DHT22;479;53.514;9.994;2023-12-29T13:11:28;9.70;99.90
981;DHT22;479;53.514;9.994;2023-12-29T13:13:55;9.80;99.90
981;DHT22;479;53.514;9.994;2023-12-29T13:16:30;9.80;99.90
981;DHT22;479;53.514;9.994;2023-12-29T13:18:57;9.80;99.90
981;DHT22;479;53.514;9.994;2023-12-29T13:21:24;9.70;99.90
981;DHT22;479;53.514;9.994;2023-12-29T13:23:51;9.70;99.90
981;DHT22;479;53.514;9.994;2023-12-29T13:26:19;9.60;99.90
981;DHT22;479;53.514;9.994;2023-12-29T13:28:47;9.60;99.90
981;DHT22;479;53.514;9.994;2023-12-29T13:31:16;9.60;99.90
981;DHT22;479;53.514;9.994;2023-12-29T13:33:49;9.50;99.90
981;DHT22;479;53.514;9.994;2023-12-29T13:36:22;9.50;99.90
981;DHT22;479;53.514;9.994;2023-12-29T13:38:53;9.40;99.90
981;DHT22;479;53.514;9.994;2023-12-29T13:41:22;9.50;99.90
981;DHT22;479;53.514;9.994;2023-12-29T13:43:52;9.40;99.90
981;DHT22;479;53.514;9.994;2023-12-29T13:46:21;9.30;99.90
981;DHT22;479;53.514;9.994;2023-12-29T13:48:49;9.30;99.90
981;DHT22;479;53.514;9.994;2023-12-29T13:51:16;9.40;99.90
981;DHT22;479;53.514;9.994;2023-12-29T13:53:43;9.50;99.90
981;DHT22;479;53.514;9.994;2023-12-29T13:56:13;9.50;99.90
981;DHT22;479;53.514;9.994;2023-12-29T13:58:41;9.50;99.90
981;DHT22;479;53.514;9.994;2023-12-29T14:01:08;9.40;99.90
981;DHT22;479;53.514;9.994;2023-12-29T14:03:42;9.40;99.90
981;DHT22;479;53.514;9.994;2023-12-29T14:06:12;9.40;99.90
981;DHT22;479;53.514;9.994;2023-12-29T14:08:46;9.30;99.90
981;DHT22;479;53.514;9.994;2023-12-29T14:11:13;9.30;99.90
981;DHT22;479;53.514;9.994;2023-12-29T14:13:45;9.20;99.90
981;DHT22;479;53.514;9.994;2023-12-29T14:16:14;9.30;99.90
981;DHT22;479;53.514;9.994;2023-12-29T14:18:56;9.20;99.90
981;DHT22;479;53.514;9.994;2023-12-29T14:21:27;9.10;99.90
981;DHT22;479;53.514;9.994;2023-12-29T14:24:06;9.20;99.90
981;DHT22;479;53.514;9.994;2023-12-29T14:26:33;9.10;99.90
981;DHT22;479;53.514;9.994;2023-12-29T14:29:03;9.20;99.90
981;DHT22;479;53.514;9.994;2023-12-29T14:31:36;9.20;99.90
981;DHT22;479;53.514;9.994;2023-12-29T14:34:03;9.20;99.90
981;DHT22;479;53.514;9.994;2023-12-29T14:36:31;9.20;99.90
981;DHT22;479;53.514;9.994;2023-12-29T14:38:58;9.20;99.90
981;DHT22;479;53.514;9.994;2023-12-29T14:41:25;9.20;99.90
981;DHT22;479;53.514;9.994;2023-12-29T14:43:52;9.10;99.90
981;DHT22;479;53.514;9.994;2023-12-29T14:46:21;9.10;99.90
981;DHT22;479;53.514;9.994;2023-12-29T14:48:48;9.10;99.90
981;DHT22;479;53.514;9.994;2023-12-29T14:51:15;9.10;99.90
981;DHT22;479;53.514;9.994;2023-12-29T14:53:43;9.10;99.90
981;DHT22;479;53.514;9.994;2023-12-29T14:56:11;9.10;99.90
981;DHT22;479;53.514;9.994;2023-12-29T14:58:38;9.10;99.90
981;DHT22;479;53.514;9.994;2023-12-29T15:01:06;9.10;99.90
981;DHT22;479;53.514;9.994;2023-12-29T15:03:34;9.10;99.90
981;DHT22;479;53.514;9.994;2023-12-29T15:06:03;9.10;99.90
981;DHT22;479;53.514;9.994;2023-12-29T15:08:30;9.10;99.90
981;DHT22;479;53.514;9.994;2023-12-29T15:11:01;9.10;99.90
981;DHT22;479;53.514;9.994;2023-12-29T15:13:28;9.10;99.90
981;DHT22;479;53.514;9.994;2023-12-29T15:15:56;9.10;99.90
981;DHT22;479;53.514;9.994;2023-12-29T15:18:25;9.10;99.90
981;DHT22;479;53.514;9.994;2023-12-29T15:20:53;9.00;99.90
981;DHT22;479;53.514;9.994;2023-12-29T15:23:20;9.00;99.90
981;DHT22;479;53.514;9.994;2023-12-29T15:25:48;9.00;99.90
981;DHT22;479;53.514;9.994;2023-12-29T15:28:15;9.00;99.90
981;DHT22;479;53.514;9.994;2023-12-29T15:30:44;8.90;99.90
981;DHT22;479;53.514;9.994;2023-12-29T15:33:11;9.00;99.90
981;DHT22;479;53.514;9.994;2023-12-29T15:35:38;9.00;99.90
981;DHT22;479;53.514;9.994;2023-12-29T15:38:08;9.00;99.90
981;DHT22;479;53.514;9.994;2023-12-29T15:40:34;9.00;99.90
981;DHT22;479;53.514;9.994;2023-12-29T15:43:01;8.90;99.90
981;DHT22;479;53.514;9.994;2023-12-29T15:45:30;9.00;99.90
981;DHT22;479;53.514;9.994;2023-12-29T15:47:57;9.00;99.90
981;DHT22;479;53.514;9.994;2023-12-29T15:50:23;9.00;99.90
981;DHT22;479;53.514;9.994;2023-12-29T15:52:50;9.00;99.90
981;DHT22;479;53.514;9.994;2023-12-29T15:55:19;9.00;99.90
981;DHT22;479;53.514;9.994;2023-12-29T15:57:46;9.00;99.90
981;DHT22;479;53.514;9.994;2023-12-29T16:00:13;9.00;99.90
981;DHT22;479;53.514;9.994;2023-12-29T16:02:40;9.00;99.90
981;DHT22;479;53.514;9.994;2023-12-29T16:05:08;9.00;99.90
981;DHT22;479;53.514;9.994;2023-12-29T16:07:35;9.00;99.90
981;DHT22;479;53.514;9.994;2023-12-29T16:10:02;9.00;99.90
981;DHT22;479;53.514;9.994;2023-12-29T16:12:33;9.00;99.90
981;DHT22;479;53.514;9.994;2023-12-29T16:15:00;9.10;99.90
981;DHT22;479;53.514;9.994;2023-12-29T16:17:27;9.00;99.90
981;DHT22;479;53.514;9.994;2023-12-29T16:19:54;9.00;99.90
981;DHT22;479;53.514;9.994;2023-12-29T16:22:21;9.00;99.90
981;DHT22;479;53.514;9.994;2023-12-29T16:24:48;8.90;99.90
981;DHT22;479;53.514;9.994;2023-12-29T16:27:17;8.90;99.90
981;DHT22;479;53.514;9.994;2023-12-29T16:29:46;9.00;99.90
981;DHT22;479;53.514;9.994;2023-12-29T16:32:20;8.90;99.90
981;DHT22;479;53.514;9.994;2023-12-29T16:34:49;8.90;99.90
981;DHT22;479;53.514;9.994;2023-12-29T16:37:16;8.90;99.90
981;DHT22;479;53.514;9.994;2023-12-29T16:39:43;8.90;99.90
981;DHT22;479;53.514;9.994;2023-12-29T16:42:11;8.90;99.90
981;DHT22;479;53.514;9.994;2023-12-29T16:44:41;8.90;99.90
981;DHT22;479;53.514;9.994;2023-12-29T16:47:09;8.90;99.90
981;DHT22;479;53.514;9.994;2023-12-29T16:49:36;8.90;99.90
981;DHT22;479;53.514;9.994;2023-12-29T16:52:04;8.90;99.90
981;DHT22;479;53.514;9.994;2023-12-29T16:54:31;8.80;99.90
981;DHT22;479;53.514;9.994;2023-12-29T16:56:59;8.80;99.90
981;DHT22;479;53.514;9.994;2023-12-29T16:59:26;8.70;99.90
981;DHT22;479;53.514;9.994;2023-12-29T17:01:53;8.70;99.90